Time;durP1;ratioP1;P1;durP2;ratioP2;P2;SDS_P1;SDS_P2;PMS_P1;PMS_P2;Temp;Humidity;BMP_temperature;BMP_pressure;BME280_temperature;BME280_humidity;BME280_pressure;Samples;Min_cycle;Max_cycle;Signal;HPM_P1;HPM_P2
2023/04/22 00:00:01;;;;;;;3.92;2.65;;;;;;;-144.57;100.00;62443.72;5069019;28;20446;-76
2023/04/22 00:02:35;;;;;;;4.30;2.83;;;;;;;-144.57;100.00;62443.72;5060708;28;20067;-78
2023/04/22 00:05:02;;;;;;;3.50;2.22;;;;;;;-144.57;100.00;62443.72;5051216;28;20041;-79
2023/04/22 00:07:30;;;;;;;4.10;2.63;;;;;;;-144.57;100.00;62443.72;5053340;28;20559;-77
2023/04/22 00:09:56;;;;;;;5.03;2.97;;;;;;;-144.57;100.00;62443.72;5063503;28;20131;-79
2023/04/22 00:12:22;;;;;;;6.32;3.08;;;;;;;-144.57;100.00;62443.72;5052566;28;20506;-78
2023/04/22 00:14:49;;;;;;;5.45;2.60;;;;;;;-144.57;100.00;62443.72;5069206;28;20039;-79
2023/04/22 00:17:16;;;;;;;5.53;3.55;;;;;;;-144.57;100.00;62443.72;5052087;28;20138;-77
2023/04/22 00:19:42;;;;;;;5.00;2.78;;;;;;;-144.57;100.00;62443.72;5054315;28;20059;-78
2023/04/22 00:22:09;;;;;;;5.03;2.97;;;;;;;-144.57;100.00;62443.72;5068092;28;20064;-79
2023/04/22 00:24:34;;;;;;;9.32;2.78;;;;;;;-144.57;100.00;62443.72;5036222;28;20055;-78
2023/04/22 00:27:07;;;;;;;5.25;2.72;;;;;;;-144.57;100.00;62443.72;5054326;28;20542;-77
2023/04/22 00:29:33;;;;;;;5.57;2.88;;;;;;;-144.57;100.00;62443.72;5042972;28;20032;-78
2023/04/22 00:31:59;;;;;;;4.28;2.70;;;;;;;-144.57;100.00;62443.72;5060099;28;20178;-76
2023/04/22 00:34:26;;;;;;;4.60;2.50;;;;;;;-144.57;100.00;62443.72;5053125;28;20041;-76
2023/04/22 00:36:52;;;;;;;4.68;2.70;;;;;;;-144.57;100.00;62443.72;5038484;28;20492;-76
2023/04/22 00:39:26;;;;;;;4.55;2.70;;;;;;;-144.57;100.00;62443.72;5057283;28;20041;-79
2023/04/22 00:41:52;;;;;;;7.78;2.63;;;;;;;-144.57;100.00;62443.72;5037618;28;20056;-79
2023/04/22 00:44:21;;;;;;;6.45;2.58;;;;;;;-144.57;100.00;62443.72;5062458;28;20044;-78
2023/04/22 00:46:47;;;;;;;4.95;2.63;;;;;;;-144.57;100.00;62443.72;5037460;28;20033;-77
2023/04/22 00:49:25;;;;;;;6.78;2.97;;;;;;;-144.57;100.00;62443.72;5054549;28;20075;-78
2023/04/22 00:51:51;;;;;;;3.28;2.60;;;;;;;-144.57;100.00;62443.72;5046526;28;20041;-77
2023/04/22 00:54:17;;;;;;;4.28;2.72;;;;;;;-144.57;100.00;62443.72;5068457;28;20045;-79
2023/04/22 00:56:44;;;;;;;5.53;2.90;;;;;;;-144.57;100.00;62443.72;5028047;28;20033;-77
2023/04/22 00:59:10;;;;;;;6.88;2.90;;;;;;;-144.57;100.00;62443.72;5037967;28;20041;-78
2023/04/22 01:01:36;;;;;;;4.95;2.83;;;;;;;-144.57;100.00;62443.72;5050064;28;20116;-77
2023/04/22 01:04:03;;;;;;;5.15;2.67;;;;;;;-144.57;100.00;62443.72;5050532;28;20037;-77
2023/04/22 01:06:31;;;;;;;7.18;2.85;;;;;;;-144.57;100.00;62443.72;5058313;28;20039;-78
2023/04/22 01:08:57;;;;;;;5.55;3.53;;;;;;;-144.57;100.00;62443.72;5050411;28;20089;-78
2023/04/22 01:11:24;;;;;;;3.40;2.28;;;;;;;-144.57;100.00;62443.72;5066105;28;20123;-78
2023/04/22 01:13:50;;;;;;;8.75;2.85;;;;;;;-144.57;100.00;62443.72;5045494;28;20144;-78
2023/04/22 01:16:17;;;;;;;7.60;3.05;;;;;;;-144.57;100.00;62443.72;5052566;28;20097;-77
2023/04/22 01:18:43;;;;;;;4.38;2.95;;;;;;;-144.57;100.00;62443.72;5032973;28;20094;-76
2023/04/22 01:21:09;;;;;;;5.38;2.97;;;;;;;-144.57;100.00;62443.72;5056739;28;20037;-77
2023/04/22 01:23:35;;;;;;;6.28;3.05;;;;;;;-144.57;100.00;62443.72;5020681;28;20104;-77
2023/04/22 01:26:02;;;;;;;7.20;3.45;;;;;;;-144.57;100.00;62443.72;5046010;28;20082;-78
2023/04/22 01:28:29;;;;;;;5.53;3.00;;;;;;;-144.57;100.00;62443.72;5048983;28;20041;-77
2023/04/22 01:30:55;;;;;;;5.57;2.97;;;;;;;-144.57;100.00;62443.72;5052635;28;20033;-79
2023/04/22 01:33:21;;;;;;;4.85;2.40;;;;;;;-144.57;100.00;62443.72;5049498;28;20040;-77
2023/04/22 01:35:47;;;;;;;4.88;2.70;;;;;;;-144.57;100.00;62443.72;5053174;28;20044;-78
2023/04/22 01:38:13;;;;;;;10.30;3.35;;;;;;;-144.57;100.00;62443.72;5035664;28;20056;-78
2023/04/22 01:40:39;;;;;;;4.80;2.75;;;;;;;-144.57;100.00;62443.72;5053221;28;20041;-77
2023/04/22 01:43:06;;;;;;;6.07;2.70;;;;;;;-144.57;100.00;62443.72;5018233;28;20044;-76
2023/04/22 01:45:34;;;;;;;4.55;2.67;;;;;;;-144.57;100.00;62443.72;5052826;28;20067;-77
2023/04/22 01:48:00;;;;;;;5.97;2.92;;;;;;;-144.57;100.00;62443.72;5059103;28;20410;-76
2023/04/22 01:50:27;;;;;;;4.43;3.03;;;;;;;-144.57;100.00;62443.72;5066591;28;20041;-78
2023/04/22 01:52:53;;;;;;;7.93;3.63;;;;;;;-144.57;100.00;62443.72;5052195;28;20056;-78
2023/04/22 01:55:21;;;;;;;8.95;3.90;;;;;;;-144.57;100.00;62443.72;5051043;28;20098;-77
2023/04/22 01:57:47;;;;;;;6.82;4.10;;;;;;;-144.57;100.00;62443.72;5053234;28;20135;-77
2023/04/22 02:00:14;;;;;;;7.80;3.78;;;;;;;-144.57;100.00;62443.72;5056256;28;20136;-78
2023/04/22 02:02:44;;;;;;;9.50;4.20;;;;;;;-144.57;100.00;62443.72;5036347;28;20037;-77
2023/04/22 02:05:10;;;;;;;8.07;4.10;;;;;;;-144.57;100.00;62443.72;5033044;28;20037;-77
2023/04/22 02:07:37;;;;;;;6.93;3.33;;;;;;;-144.57;100.00;62443.72;5066325;28;20127;-77
2023/04/22 02:10:04;;;;;;;4.68;3.15;;;;;;;-144.57;100.00;62443.72;5067702;28;20029;-79
2023/04/22 02:12:33;;;;;;;6.13;3.10;;;;;;;-144.57;100.00;62443.72;5065927;28;20585;-78
2023/04/22 02:15:00;;;;;;;6.55;2.97;;;;;;;-144.57;100.00;62443.72;5035588;28;20041;-77
2023/04/22 02:17:34;;;;;;;4.68;2.88;;;;;;;-144.57;100.00;62443.72;5053178;28;20135;-80
2023/04/22 02:20:03;;;;;;;4.25;3.35;;;;;;;-144.57;100.00;62443.72;5046638;28;20054;-80
2023/04/22 02:22:33;;;;;;;6.18;2.95;;;;;;;-144.57;100.00;62443.72;5064312;28;20403;-78
2023/04/22 02:25:00;;;;;;;5.15;2.80;;;;;;;-144.57;100.00;62443.72;5036130;28;20036;-78
2023/04/22 02:27:28;;;;;;;4.75;2.72;;;;;;;-144.57;100.00;62443.72;5054677;28;20040;-80
2023/04/22 02:29:53;;;;;;;4.32;2.95;;;;;;;-144.57;100.00;62443.72;5040479;28;20075;-79
2023/04/22 02:32:19;;;;;;;4.03;2.90;;;;;;;-144.57;100.00;62443.72;5069882;28;20045;-80
2023/04/22 02:34:46;;;;;;;5.95;2.83;;;;;;;-144.57;100.00;62443.72;5053332;28;20048;-78
2023/04/22 02:37:13;;;;;;;8.52;2.78;;;;;;;-144.57;100.00;62443.72;5026035;28;20044;-78
2023/04/22 02:39:40;;;;;;;4.25;2.60;;;;;;;-144.57;100.00;62443.72;5036545;28;20094;-77
2023/04/22 02:42:06;;;;;;;7.50;3.38;;;;;;;-144.57;100.00;62443.72;5056500;28;20139;-80
2023/04/22 02:44:32;;;;;;;6.35;3.20;;;;;;;-144.57;100.00;62443.72;5066627;28;20123;-79
2023/04/22 02:46:59;;;;;;;10.25;4.28;;;;;;;-144.57;100.00;62443.72;5053640;28;20039;-81
2023/04/22 02:49:25;;;;;;;4.25;3.15;;;;;;;-144.57;100.00;62443.72;5067462;28;20044;-78
2023/04/22 02:51:53;;;;;;;7.47;3.42;;;;;;;-144.57;100.00;62443.72;5039054;28;20569;-79
2023/04/22 02:54:19;;;;;;;8.40;3.55;;;;;;;-144.57;100.00;62443.72;5052152;28;20041;-76
2023/04/22 02:56:46;;;;;;;5.22;3.53;;;;;;;-144.57;100.00;62443.72;5065630;28;20047;-82
2023/04/22 02:59:13;;;;;;;4.93;3.72;;;;;;;-144.57;100.00;62443.72;5018967;28;20048;-78
2023/04/22 03:01:39;;;;;;;13.32;4.20;;;;;;;-144.57;100.00;62443.72;5040890;28;20086;-77
2023/04/22 03:04:11;;;;;;;6.55;4.03;;;;;;;-144.57;100.00;62443.72;5062212;28;20434;-78
2023/04/22 03:06:37;;;;;;;4.20;3.75;;;;;;;-144.57;100.00;62443.72;5045527;28;20045;-80
2023/04/22 03:09:04;;;;;;;8.73;4.60;;;;;;;-144.57;100.00;62443.72;5039964;28;20474;-77
2023/04/22 03:11:31;;;;;;;10.63;4.18;;;;;;;-144.57;100.00;62443.72;5049446;28;20048;-76
2023/04/22 03:13:57;;;;;;;7.40;4.30;;;;;;;-144.57;100.00;62443.72;5070544;28;20037;-79
2023/04/22 03:16:24;;;;;;;7.88;4.82;;;;;;;-144.57;100.00;62443.72;5054936;28;20036;-74
2023/04/22 03:18:52;;;;;;;8.98;4.70;;;;;;;-144.57;100.00;62443.72;5055649;28;20045;-81
2023/04/22 03:21:19;;;;;;;6.38;4.63;;;;;;;-144.57;100.00;62443.72;5039772;28;20140;-76
2023/04/22 03:23:45;;;;;;;10.82;4.45;;;;;;;-144.57;100.00;62443.72;5056095;28;20049;-80
2023/04/22 03:26:12;;;;;;;7.78;4.25;;;;;;;-144.57;100.00;62443.72;5056440;28;20095;-81
2023/04/22 03:28:41;;;;;;;6.97;4.40;;;;;;;-144.57;100.00;62443.72;5049734;28;20127;-82
2023/04/22 03:31:08;;;;;;;7.85;4.78;;;;;;;-144.57;100.00;62443.72;5065277;28;20093;-80
2023/04/22 03:33:34;;;;;;;7.25;4.30;;;;;;;-144.57;100.00;62443.72;5021237;28;20041;-78
2023/04/22 03:36:08;;;;;;;9.02;4.60;;;;;;;-144.57;100.00;62443.72;5058804;28;20036;-80
2023/04/22 03:38:34;;;;;;;7.22;4.57;;;;;;;-144.57;100.00;62443.72;5048913;28;20108;-76
2023/04/22 03:41:00;;;;;;;8.80;4.72;;;;;;;-144.57;100.00;62443.72;5068722;28;20045;-77
2023/04/22 03:43:39;;;;;;;5.78;4.15;;;;;;;-144.57;100.00;62443.72;5042845;28;20102;-79
2023/04/22 03:46:07;;;;;;;5.60;4.03;;;;;;;-144.57;100.00;62443.72;5053360;28;20033;-75
2023/04/22 03:48:37;;;;;;;6.47;4.03;;;;;;;-144.57;100.00;62443.72;5055350;28;20114;-78
2023/04/22 03:51:09;;;;;;;8.68;4.18;;;;;;;-144.57;100.00;62443.72;5063880;28;20414;-80
2023/04/22 03:53:37;;;;;;;12.75;4.70;;;;;;;-144.57;100.00;62443.72;5067630;28;20557;-76
2023/04/22 03:56:04;;;;;;;7.93;4.32;;;;;;;-144.57;100.00;62443.72;5053785;28;20081;-81
2023/04/22 03:58:35;;;;;;;;;;;;;;;-144.57;100.00;62443.72;5069824;28;20040;-77
2023/04/22 04:01:04;;;;;;;7.00;4.00;;;;;;;-144.57;100.00;62443.72;5054292;28;19921;-76
2023/04/22 04:03:31;;;;;;;11.00;5.10;;;;;;;-144.57;100.00;62443.72;5051677;28;20044;-77
2023/04/22 04:05:57;;;;;;;7.25;4.63;;;;;;;-144.57;100.00;62443.72;5048846;28;20033;-76
2023/04/22 04:08:24;;;;;;;7.50;4.20;;;;;;;-144.57;100.00;62443.72;5054073;28;20337;-78
2023/04/22 04:10:50;;;;;;;9.82;4.40;;;;;;;-144.57;100.00;62443.72;5054619;28;20120;-76
2023/04/22 04:13:17;;;;;;;13.07;5.72;;;;;;;-144.57;100.00;62443.72;5060952;28;20111;-80
2023/04/22 04:16:02;;;;;;;7.10;4.20;;;;;;;-144.57;100.00;62443.72;5071068;28;20067;-80
2023/04/22 04:18:31;;;;;;;9.90;5.90;;;;;;;-144.57;100.00;62443.72;5018513;28;20110;-76
2023/04/22 04:20:58;;;;;;;5.88;3.55;;;;;;;-144.57;100.00;62443.72;5021703;28;20040;-79
2023/04/22 04:23:26;;;;;;;10.07;3.90;;;;;;;-144.57;100.00;62443.72;5036999;28;20053;-77
2023/04/22 04:25:54;;;;;;;8.90;4.18;;;;;;;-144.57;100.00;62443.72;5058319;28;20051;-81
2023/04/22 04:28:21;;;;;;;6.68;3.70;;;;;;;-144.57;100.00;62443.72;5005863;28;20041;-78
2023/04/22 04:30:49;;;;;;;4.63;3.10;;;;;;;-144.57;100.00;62443.72;5034131;28;20036;-79
2023/04/22 04:33:16;;;;;;;6.78;3.45;;;;;;;-144.57;100.00;62443.72;5052932;28;20047;-77
2023/04/22 04:35:44;;;;;;;5.22;3.10;;;;;;;-144.57;100.00;62443.72;5036393;28;20037;-81
2023/04/22 04:38:14;;;;;;;5.30;3.15;;;;;;;-144.57;100.00;62443.72;5046080;28;20048;-81
2023/04/22 04:40:42;;;;;;;5.35;2.90;;;;;;;-144.57;100.00;62443.72;5034677;28;20059;-75
2023/04/22 04:43:17;;;;;;;7.88;3.53;;;;;;;-144.57;100.00;62443.72;5054878;28;20048;-80
2023/04/22 04:45:48;;;;;;;8.98;3.03;;;;;;;-144.57;100.00;62443.72;5038410;28;20047;-82
2023/04/22 04:48:18;;;;;;;4.65;2.97;;;;;;;-144.57;100.00;62443.72;5059426;28;20123;-81
2023/04/22 04:50:52;;;;;;;5.82;2.88;;;;;;;-144.57;100.00;62443.72;5054376;28;20047;-77
2023/04/22 04:53:21;;;;;;;3.47;2.85;;;;;;;-144.57;100.00;62443.72;5011451;28;20045;-81
2023/04/22 04:55:48;;;;;;;5.80;2.55;;;;;;;-144.57;100.00;62443.72;5032505;28;20414;-80
2023/04/22 04:58:20;;;;;;;5.57;2.75;;;;;;;-144.57;100.00;62443.72;5052362;28;20094;-82
2023/04/22 05:00:54;;;;;;;5.15;2.85;;;;;;;-144.57;100.00;62443.72;5053217;28;20044;-80
2023/04/22 05:03:21;;;;;;;4.18;2.58;;;;;;;-144.57;100.00;62443.72;5055737;28;20049;-80
2023/04/22 05:05:48;;;;;;;5.38;2.67;;;;;;;-144.57;100.00;62443.72;5048316;28;20063;-81
2023/04/22 05:08:14;;;;;;;5.55;2.20;;;;;;;-144.57;100.00;62443.72;5064992;28;20052;-80
2023/04/22 05:10:43;;;;;;;6.35;2.50;;;;;;;-144.57;100.00;62443.72;5046632;28;20086;-79
2023/04/22 05:13:11;;;;;;;6.72;2.50;;;;;;;-144.57;100.00;62443.72;5067459;28;20053;-81
2023/04/22 05:15:40;;;;;;;6.45;2.60;;;;;;;-144.57;100.00;62443.72;5053102;28;20032;-81
2023/04/22 05:18:07;;;;;;;4.63;2.50;;;;;;;-144.57;100.00;62443.72;5068360;28;20127;-81
2023/04/22 05:20:33;;;;;;;5.05;2.30;;;;;;;-144.57;100.00;62443.72;5051202;28;20045;-79
2023/04/22 05:23:00;;;;;;;4.20;1.98;;;;;;;-144.57;100.00;62443.72;5073204;28;20056;-79
2023/04/22 05:25:26;;;;;;;5.50;2.25;;;;;;;-144.57;100.00;62443.72;5055024;28;20410;-81
2023/04/22 05:27:59;;;;;;;8.45;2.90;;;;;;;-144.57;100.00;62443.72;5065619;28;20037;-77
2023/04/22 05:30:31;;;;;;;7.95;2.17;;;;;;;-144.57;100.00;62443.72;5067796;28;20037;-81
2023/04/22 05:32:58;;;;;;;3.10;1.90;;;;;;;-144.57;100.00;62443.72;5068407;28;20521;-82
2023/04/22 05:35:24;;;;;;;6.07;2.22;;;;;;;-144.57;100.00;62443.72;5042477;28;20048;-82
2023/04/22 05:37:51;;;;;;;5.68;1.80;;;;;;;-144.57;100.00;62443.72;5054323;28;20047;-81
2023/04/22 05:40:17;;;;;;;3.55;2.25;;;;;;;-144.57;100.00;62443.72;5036537;28;20044;-78
2023/04/22 05:42:43;;;;;;;3.83;2.40;;;;;;;-144.57;100.00;62443.72;5053812;28;20118;-80
2023/04/22 05:45:11;;;;;;;4.38;1.95;;;;;;;-144.57;100.00;62443.72;5053033;28;20051;-78
2023/04/22 05:47:38;;;;;;;5.10;1.70;;;;;;;-144.57;100.00;62443.72;5054211;28;20166;-82
2023/04/22 05:50:06;;;;;;;3.40;1.73;;;;;;;-144.57;100.00;62443.72;5051963;28;20043;-78
2023/04/22 05:52:46;;;;;;;3.67;1.85;;;;;;;-144.57;100.00;62443.72;5054791;28;20060;-76
2023/04/22 05:55:15;;;;;;;3.30;1.90;;;;;;;-144.57;100.00;62443.72;5037726;28;20041;-81
2023/04/22 05:57:43;;;;;;;4.07;2.15;;;;;;;-144.57;100.00;62443.72;5063614;28;20033;-76
2023/04/22 06:00:30;;;;;;;2.63;1.50;;;;;;;-144.57;100.00;62443.72;5067133;28;20416;-83
2023/04/22 06:03:11;;;;;;;3.33;1.70;;;;;;;-144.57;100.00;62443.72;5053813;28;20580;-78
2023/04/22 06:05:37;;;;;;;3.58;1.55;;;;;;;-144.57;100.00;62443.72;5068899;28;20048;-76
2023/04/22 06:08:03;;;;;;;7.75;2.65;;;;;;;-144.57;100.00;62443.72;5067970;28;20343;-78
2023/04/22 06:10:30;;;;;;;2.97;1.90;;;;;;;-144.57;100.00;62443.72;5069033;28;20131;-82
2023/04/22 06:12:56;;;;;;;1.90;1.70;;;;;;;-144.57;100.00;62443.72;5050394;28;20036;-80
2023/04/22 06:15:24;;;;;;;5.30;2.22;;;;;;;-144.57;100.00;62443.72;5055369;28;20059;-79
2023/04/22 06:17:50;;;;;;;1.85;1.10;;;;;;;-144.57;100.00;62443.72;5033746;28;20060;-78
2023/04/22 06:20:16;;;;;;;4.78;1.70;;;;;;;-144.57;100.00;62443.72;5035592;28;20044;-77
2023/04/22 06:22:43;;;;;;;2.60;1.58;;;;;;;-144.57;100.00;62443.72;5053964;28;20399;-82
2023/04/22 06:25:09;;;;;;;2.60;1.50;;;;;;;-144.57;100.00;62443.72;5055631;28;20103;-78
2023/04/22 06:27:36;;;;;;;1.88;1.50;;;;;;;-144.57;100.00;62443.72;5056250;28;20136;-81
2023/04/22 06:30:04;;;;;;;1.90;1.48;;;;;;;-144.57;100.00;62443.72;5054378;28;20094;-81
2023/04/22 06:32:32;;;;;;;2.85;1.70;;;;;;;-144.57;100.00;62443.72;5043617;28;20090;-80
2023/04/22 06:34:58;;;;;;;2.03;1.40;;;;;;;-144.57;100.00;62443.72;5073767;28;20041;-78
2023/04/22 06:37:26;;;;;;;2.53;1.50;;;;;;;-144.57;100.00;62443.72;5057270;28;20143;-81
2023/04/22 06:39:52;;;;;;;3.13;1.52;;;;;;;-144.57;100.00;62443.72;5036676;28;20520;-75
2023/04/22 06:42:36;;;;;;;4.40;1.80;;;;;;;-144.57;100.00;62443.72;5053068;28;20136;-77
2023/04/22 06:45:20;;;;;;;1.48;1.30;;;;;;;-144.57;100.00;62443.72;5054858;28;20041;-80
2023/04/22 06:48:05;;;;;;;2.97;1.40;;;;;;;-144.57;100.00;62443.72;5053691;28;20045;-81
2023/04/22 06:50:51;;;;;;;2.53;1.40;;;;;;;-144.57;100.00;62443.72;5058153;28;20041;-77
2023/04/22 06:53:17;;;;;;;1.73;1.30;;;;;;;-144.57;100.00;62443.72;5073038;28;20101;-76
2023/04/22 06:55:43;;;;;;;2.42;1.70;;;;;;;-144.57;100.00;62443.72;5073038;28;20051;-79
2023/04/22 06:58:09;;;;;;;2.47;1.50;;;;;;;-144.57;100.00;62443.72;5073632;28;20048;-80
2023/04/22 07:00:35;;;;;;;3.15;1.73;;;;;;;-144.57;100.00;62443.72;5074551;28;20098;-79
2023/04/22 07:03:01;;;;;;;3.80;1.90;;;;;;;-144.57;100.00;62443.72;5074309;28;20055;-80
2023/04/22 07:05:28;;;;;;;2.10;1.60;;;;;;;-144.57;100.00;62443.72;5073294;28;20044;-76
2023/04/22 07:07:56;;;;;;;5.00;2.03;;;;;;;-144.57;100.00;62443.72;5073387;28;20128;-83
2023/04/22 07:10:23;;;;;;;8.43;2.00;;;;;;;-144.57;100.00;62443.72;5056785;28;20066;-77
2023/04/22 07:13:09;;;;;;;7.88;2.05;;;;;;;-144.57;100.00;62443.72;5074288;28;20048;-79
2023/04/22 07:15:35;;;;;;;4.28;1.80;;;;;;;-144.57;100.00;62443.72;5055772;28;20064;-76
2023/04/22 07:18:01;;;;;;;3.05;2.20;;;;;;;-144.57;100.00;62443.72;5056310;28;20080;-80
2023/04/22 07:20:27;;;;;;;1.70;1.60;;;;;;;-144.57;100.00;62443.72;5022247;28;20071;-76
2023/04/22 07:22:54;;;;;;;7.63;2.15;;;;;;;-144.57;100.00;62443.72;5061432;28;20049;-82
2023/04/22 07:25:20;;;;;;;3.75;1.83;;;;;;;-144.57;100.00;62443.72;5051991;28;20045;-77
2023/04/22 07:27:45;;;;;;;3.28;2.20;;;;;;;-144.57;100.00;62443.72;5060516;28;20041;-77
2023/04/22 07:30:12;;;;;;;3.72;1.88;;;;;;;-144.57;100.00;62443.72;5056209;28;20045;-81
2023/04/22 07:32:38;;;;;;;4.90;1.75;;;;;;;-144.57;100.00;62443.72;5063807;28;20411;-77
2023/04/22 07:35:05;;;;;;;2.75;2.10;;;;;;;-144.57;100.00;62443.72;5037500;28;20036;-82
2023/04/22 07:37:31;;;;;;;2.25;1.67;;;;;;;-144.57;100.00;62443.72;5055614;28;20178;-79
2023/04/22 07:39:57;;;;;;;2.45;1.67;;;;;;;-144.57;100.00;62443.72;5035893;28;20123;-78
2023/04/22 07:42:23;;;;;;;3.65;1.40;;;;;;;-144.57;100.00;62443.72;5037823;28;20079;-80
2023/04/22 07:44:50;;;;;;;6.22;1.77;;;;;;;-144.57;100.00;62443.72;5038411;28;20210;-80
2023/04/22 07:47:15;;;;;;;2.33;1.73;;;;;;;-144.57;100.00;62443.72;5060874;28;20514;-79
2023/04/22 07:49:42;;;;;;;4.97;1.92;;;;;;;-144.57;100.00;62443.72;5055098;28;20075;-79
2023/04/22 07:52:08;;;;;;;3.10;1.80;;;;;;;-144.57;100.00;62443.72;5055396;28;20102;-79
2023/04/22 07:54:34;;;;;;;3.92;2.00;;;;;;;-144.57;100.00;62443.72;5038223;28;20056;-77
2023/04/22 07:57:00;;;;;;;3.38;2.28;;;;;;;-144.57;100.00;62443.72;5037371;28;20119;-80
2023/04/22 07:59:26;;;;;;;6.90;1.83;;;;;;;-144.57;100.00;62443.72;5054459;28;20037;-78
2023/04/22 08:01:53;;;;;;;2.85;1.90;;;;;;;-144.57;100.00;62443.72;5054978;28;20613;-81
2023/04/22 08:04:22;;;;;;;3.08;1.90;;;;;;;-144.57;100.00;62443.72;5052143;28;20032;-71
2023/04/22 08:06:47;;;;;;;4.95;1.35;;;;;;;-144.57;100.00;62443.72;5070009;28;20054;-78
2023/04/22 08:09:13;;;;;;;1.60;1.50;;;;;;;-144.57;100.00;62443.72;5030682;28;20526;-78
2023/04/22 08:11:39;;;;;;;2.05;1.42;;;;;;;-144.57;100.00;62443.72;5059583;28;20090;-77
2023/04/22 08:14:05;;;;;;;2.97;2.00;;;;;;;-144.57;100.00;62443.72;5066504;28;20033;-80
2023/04/22 08:16:31;;;;;;;2.33;1.70;;;;;;;-144.57;100.00;62443.72;5056118;28;20051;-81
2023/04/22 08:18:57;;;;;;;4.20;1.85;;;;;;;-144.57;100.00;62443.72;5029959;28;20060;-81
2023/04/22 08:21:23;;;;;;;2.72;1.80;;;;;;;-144.57;100.00;62443.72;5054315;28;20441;-80
2023/04/22 08:23:49;;;;;;;2.63;1.85;;;;;;;-144.57;100.00;62443.72;5055171;28;20044;-77
2023/04/22 08:26:15;;;;;;;2.83;1.92;;;;;;;-144.57;100.00;62443.72;5045237;28;20537;-79
2023/04/22 08:28:42;;;;;;;2.67;1.80;;;;;;;-144.57;100.00;62443.72;5055276;28;20072;-77
2023/04/22 08:31:09;;;;;;;4.45;2.10;;;;;;;-144.57;100.00;62443.72;5050579;28;20591;-77
2023/04/22 08:33:35;;;;;;;4.38;1.80;;;;;;;-144.57;100.00;62443.72;5045133;28;20079;-77
2023/04/22 08:36:02;;;;;;;3.70;1.77;;;;;;;-144.57;100.00;62443.72;5065246;28;20068;-77
2023/04/22 08:38:28;;;;;;;3.88;1.80;;;;;;;-144.57;100.00;62443.72;5072732;28;20565;-77
2023/04/22 08:40:55;;;;;;;4.10;2.20;;;;;;;-144.57;100.00;62443.72;5072095;28;20046;-77
2023/04/22 08:43:21;;;;;;;3.38;2.00;;;;;;;-144.57;100.00;62443.72;5071194;28;20044;-76
2023/04/22 08:45:48;;;;;;;2.40;2.13;;;;;;;-144.57;100.00;62443.72;5069772;28;20040;-76
2023/04/22 08:48:15;;;;;;;3.67;2.17;;;;;;;-144.57;100.00;62443.72;5070834;28;20044;-78
2023/04/22 08:50:41;;;;;;;3.08;2.38;;;;;;;-144.57;100.00;62443.72;5018431;28;20045;-76
2023/04/22 08:53:07;;;;;;;4.63;2.30;;;;;;;-144.57;100.00;62443.72;5072172;28;20087;-80
2023/04/22 08:55:34;;;;;;;3.47;2.03;;;;;;;-144.57;100.00;62443.72;5053780;28;20047;-75
2023/04/22 08:58:02;;;;;;;2.22;1.80;;;;;;;-144.57;100.00;62443.72;5070861;28;20070;-76
2023/04/22 09:00:30;;;;;;;2.50;2.00;;;;;;;-144.57;100.00;62443.72;5037924;28;20454;-75
2023/04/22 09:03:01;;;;;;;3.38;1.95;;;;;;;-144.57;100.00;62443.72;5070635;28;20169;-77
2023/04/22 09:05:29;;;;;;;3.03;1.95;;;;;;;-144.57;100.00;62443.72;5021183;28;20052;-78
2023/04/22 09:07:57;;;;;;;3.63;2.20;;;;;;;-144.57;100.00;62443.72;5070625;28;20530;-74
2023/04/22 09:10:23;;;;;;;2.55;2.15;;;;;;;-144.57;100.00;62443.72;5066245;28;20037;-79
2023/04/22 09:12:50;;;;;;;4.20;2.30;;;;;;;-144.57;100.00;62443.72;5058277;28;20059;-79
2023/04/22 09:15:16;;;;;;;4.57;2.40;;;;;;;-144.57;100.00;62443.72;5029937;28;20056;-80
2023/04/22 09:17:42;;;;;;;5.07;2.25;;;;;;;-144.57;100.00;62443.72;5053475;28;20051;-78
2023/04/22 09:20:09;;;;;;;2.15;1.92;;;;;;;-144.57;100.00;62443.72;5053809;28;20115;-75
2023/04/22 09:22:46;;;;;;;4.90;2.15;;;;;;;-144.57;100.00;62443.72;5050240;28;20041;-77
2023/04/22 09:25:17;;;;;;;3.17;1.77;;;;;;;-144.57;100.00;62443.72;5052166;28;20114;-76
2023/04/22 09:27:48;;;;;;;2.20;1.83;;;;;;;-144.57;100.00;62443.72;5038573;28;20037;-78
2023/04/22 09:30:14;;;;;;;4.18;2.00;;;;;;;-144.57;100.00;62443.72;5051257;28;20045;-75
2023/04/22 09:32:40;;;;;;;2.78;1.77;;;;;;;-144.57;100.00;62443.72;5058563;28;20098;-77
2023/04/22 09:35:07;;;;;;;1.85;1.75;;;;;;;-144.57;100.00;62443.72;5016796;28;20036;-77
2023/04/22 09:37:33;;;;;;;3.83;1.95;;;;;;;-144.57;100.00;62443.72;5050100;28;20049;-80
2023/04/22 09:39:59;;;;;;;2.22;1.50;;;;;;;-144.57;100.00;62443.72;5033569;28;20098;-76
2023/04/22 09:42:25;;;;;;;1.70;1.60;;;;;;;-144.57;100.00;62443.72;5062137;28;20041;-79
2023/04/22 09:44:52;;;;;;;2.15;1.77;;;;;;;-144.57;100.00;62443.72;5012467;28;20127;-76
2023/04/22 09:47:19;;;;;;;2.90;1.80;;;;;;;-144.57;100.00;62443.72;5052933;28;20118;-76
2023/04/22 09:49:48;;;;;;;3.13;1.90;;;;;;;-144.57;100.00;62443.72;5060287;28;20083;-76
2023/04/22 09:52:23;;;;;;;3.10;1.80;;;;;;;-144.57;100.00;62443.72;5066348;28;20048;-76
2023/04/22 09:54:53;;;;;;;3.25;2.42;;;;;;;-144.57;100.00;62443.72;5047069;28;20097;-79
2023/04/22 09:57:22;;;;;;;1.35;1.20;;;;;;;-144.57;100.00;62443.72;5055129;28;20282;-78
2023/04/22 09:59:52;;;;;;;3.00;1.60;;;;;;;-144.57;100.00;62443.72;5028540;28;20128;-78
2023/04/22 10:02:18;;;;;;;1.60;1.50;;;;;;;-144.57;100.00;62443.72;5058391;28;20052;-78
2023/04/22 10:04:44;;;;;;;1.83;1.60;;;;;;;-144.57;100.00;62443.72;5022626;28;20040;-78
2023/04/22 10:07:10;;;;;;;3.83;1.95;;;;;;;-144.57;100.00;62443.72;5039513;28;20128;-78
2023/04/22 10:09:36;;;;;;;2.10;1.70;;;;;;;-144.57;100.00;62443.72;5056658;28;20120;-79
2023/04/22 10:12:02;;;;;;;2.88;1.60;;;;;;;-144.57;100.00;62443.72;5056666;28;20055;-78
2023/04/22 10:14:28;;;;;;;2.65;1.70;;;;;;;-144.57;100.00;62443.72;5054512;28;20040;-75
2023/04/22 10:16:58;;;;;;;1.98;1.70;;;;;;;-144.57;100.00;62443.72;5062253;28;20032;-78
2023/04/22 10:19:25;;;;;;;4.05;1.55;;;;;;;-144.57;100.00;62443.72;5067182;28;20063;-75
2023/04/22 10:21:55;;;;;;;2.83;1.60;;;;;;;-144.57;100.00;62443.72;5070358;28;20055;-80
2023/04/22 10:24:20;;;;;;;2.67;1.50;;;;;;;-144.57;100.00;62443.72;5068061;28;20052;-78
2023/04/22 10:26:58;;;;;;;2.70;1.85;;;;;;;-144.57;100.00;62443.72;5053580;28;20513;-78
2023/04/22 10:29:26;;;;;;;1.50;1.40;;;;;;;-144.57;100.00;62443.72;5051299;28;20032;-77
2023/04/22 10:32:04;;;;;;;1.63;1.30;;;;;;;-144.57;100.00;62443.72;5010447;28;20052;-81
2023/04/22 10:34:31;;;;;;;2.38;1.60;;;;;;;-144.57;100.00;62443.72;5039091;28;20556;-80
2023/04/22 10:37:05;;;;;;;3.92;1.60;;;;;;;-144.57;100.00;62443.72;5069397;28;20051;-81
2023/04/22 10:39:31;;;;;;;3.63;1.80;;;;;;;-144.57;100.00;62443.72;5068082;28;20120;-78
2023/04/22 10:42:06;;;;;;;3.45;1.65;;;;;;;-144.57;100.00;62443.72;5019477;28;20032;-80
2023/04/22 10:44:45;;;;;;;2.25;1.70;;;;;;;-144.57;100.00;62443.72;5057830;28;20033;-80
2023/04/22 10:47:11;;;;;;;2.97;1.60;;;;;;;-144.57;100.00;62443.72;5054696;28;20422;-75
2023/04/22 10:49:37;;;;;;;3.53;1.88;;;;;;;-144.57;100.00;62443.72;5052617;28;20043;-75
2023/04/22 10:52:05;;;;;;;2.70;1.58;;;;;;;-144.57;100.00;62443.72;5054951;28;20127;-76
2023/04/22 10:54:35;;;;;;;3.17;1.67;;;;;;;-144.57;100.00;62443.72;5056746;28;20414;-77
2023/04/22 10:57:15;;;;;;;2.55;1.88;;;;;;;-144.57;100.00;62443.72;5030955;28;20041;-80
2023/04/22 10:59:45;;;;;;;9.38;6.07;;;;;;;-144.57;100.00;62443.72;5054371;28;20036;-77
2023/04/22 11:02:13;;;;;;;2.30;1.60;;;;;;;-144.57;100.00;62443.72;5032701;28;20037;-79
2023/04/22 11:04:39;;;;;;;1.60;1.50;;;;;;;-144.57;100.00;62443.72;5030532;28;20447;-80
2023/04/22 11:07:19;;;;;;;2.92;1.60;;;;;;;-144.57;100.00;62443.72;5056582;28;20040;-76
2023/04/22 11:09:51;;;;;;;2.25;1.98;;;;;;;-144.57;100.00;62443.72;5045978;28;20040;-80
2023/04/22 11:12:37;;;;;;;3.55;2.22;;;;;;;-144.57;100.00;62443.72;5038551;28;20048;-75